TimeEDT,TemperatureF,Dew PointF,Humidity,Sea Level PressureIn,VisibilityMPH,Wind Direction,Wind SpeedMPH,Gust SpeedMPH,PrecipitationIn,Events,Conditions,WindDirDegrees,DateUTC
12:55 AM,45.0,41.0,86,30.03,10.0,WSW,8.1,-,N/A,,Clear,240,2013-10-08 04:55:00
1:55 AM,43.0,39.9,89,30.05,10.0,SW,5.8,-,N/A,,Clear,220,2013-10-08 05:55:00
2:55 AM,41.0,39.0,93,30.07,10.0,WSW,4.6,-,N/A,,Clear,250,2013-10-08 06:55:00
3:55 AM,41.0,37.9,89,30.08,10.0,Calm,Calm,-,N/A,,Clear,0,2013-10-08 07:55:00
4:55 AM,41.0,37.9,89,30.11,10.0,Calm,Calm,-,N/A,,Clear,0,2013-10-08 08:55:00
5:55 AM,39.0,36.0,89,30.13,10.0,East,3.5,-,N/A,,Clear,80,2013-10-08 09:55:00
6:32 AM,39.0,36.0,89,30.13,10.0,Calm,Calm,-,N/A,,Scattered Clouds,0,2013-10-08 10:32:00
6:41 AM,39.0,37.0,93,30.13,7.0,ENE,3.5,-,N/A,,Mostly Cloudy,70,2013-10-08 10:41:00
6:44 AM,39.0,37.0,93,30.13,1.5,ENE,3.5,-,N/A,,Mostly Cloudy,70,2013-10-08 10:44:00
6:53 AM,39.2,37.4,93,30.13,0.5,ENE,3.5,-,N/A,Fog,Fog,70,2013-10-08 10:53:00
6:55 AM,39.0,37.0,93,30.14,0.5,ENE,3.5,-,N/A,Fog,Fog,70,2013-10-08 10:55:00
7:00 AM,39.0,37.0,93,30.13,1.2,ENE,3.5,-,N/A,,Scattered Clouds,70,2013-10-08 11:00:00
7:04 AM,39.0,37.0,93,30.13,3.0,ENE,3.5,-,N/A,,Scattered Clouds,70,2013-10-08 11:04:00
7:08 AM,39.0,37.0,93,30.14,2.5,ENE,3.5,-,N/A,,Mostly Cloudy,70,2013-10-08 11:08:00
7:15 AM,39.0,37.0,93,30.14,0.8,Calm,Calm,-,N/A,,Mist,0,2013-10-08 11:15:00
7:55 AM,37.0,35.1,93,30.16,0.2,ENE,3.5,-,N/A,Fog,Fog,70,2013-10-08 11:55:00
8:55 AM,39.0,37.9,96,30.18,0.2,ENE,3.5,-,N/A,Fog,Fog,70,2013-10-08 12:55:00
9:55 AM,44.1,44.1,100,30.19,0.2,Calm,Calm,-,N/A,Fog,Fog,0,2013-10-08 13:55:00
10:07 AM,45.0,44.1,97,30.19,2.5,Calm,Calm,-,N/A,,Mostly Cloudy,0,2013-10-08 14:07:00
10:14 AM,46.0,45.0,96,30.19,10.0,East,3.5,-,N/A,,Mostly Cloudy,100,2013-10-08 14:14:00
10:22 AM,46.9,45.0,93,30.19,10.0,NE,3.5,-,N/A,,Scattered Clouds,50,2013-10-08 14:22:00
10:55 AM,51.1,46.0,83,30.19,10.0,ENE,3.5,-,N/A,,Clear,60,2013-10-08 14:55:00
11:55 AM,57.9,45.0,62,30.18,10.0,SSE,8.1,-,N/A,,Clear,160,2013-10-08 15:55:00
12:55 PM,61.0,41.0,48,30.18,10.0,SSW,8.1,-,N/A,,Clear,200,2013-10-08 16:55:00
1:55 PM,63.0,41.0,45,30.17,10.0,South,10.4,-,N/A,,Clear,180,2013-10-08 17:55:00
2:55 PM,64.0,41.0,43,30.17,10.0,SSW,12.7,21.9,N/A,,Clear,200,2013-10-08 18:55:00
3:55 PM,64.0,41.0,43,30.16,10.0,SSW,13.8,-,N/A,,Clear,200,2013-10-08 19:55:00
4:55 PM,64.0,43.0,46,30.15,10.0,South,9.2,-,N/A,,Clear,170,2013-10-08 20:55:00
5:55 PM,62.1,44.1,52,30.15,10.0,SSE,10.4,-,N/A,,Clear,150,2013-10-08 21:55:00
6:55 PM,57.0,44.1,62,30.16,10.0,SE,11.5,20.7,N/A,,Clear,140,2013-10-08 22:55:00
7:55 PM,54.0,45.0,72,30.17,10.0,ESE,6.9,-,N/A,,Clear,120,2013-10-08 23:55:00
8:55 PM,53.1,46.0,77,30.16,10.0,ESE,6.9,-,N/A,,Clear,110,2013-10-09 00:55:00
9:55 PM,53.1,48.9,86,30.16,10.0,ESE,6.9,-,N/A,,Clear,120,2013-10-09 01:55:00
10:55 PM,54.0,48.9,83,30.16,10.0,ESE,8.1,-,N/A,,Clear,120,2013-10-09 02:55:00
11:55 PM,54.0,48.9,83,30.16,10.0,ESE,8.1,-,N/A,,Clear,120,2013-10-09 03:55:00